Friday, October 19, 2018, 7:11 AM EDT
Back to Local

K40B, Clayton Lake

Location: Ashland, ME, United States Lat: 46.617
Local Time: 7:11 AM EDT (11:11 GMT) Lon: -69.533
Time Zone: US/Eastern Elev: 1030 ft

Show me the last for .
Show Decoded

2018-10-19 06:16 METAR K40B 191016Z AUTO VRB02KT M03/M06 A3003 RMK AO1 SLP194 T10301055 57003 =
2018-10-19 05:16 METAR K40B 190916Z AUTO 00000KT M03/M07 A3003 RMK AO1 SLP194 T10301074 57005
                 60000 =
2018-10-19 04:16 METAR K40B 190816Z AUTO 00000KT M03/M08 A3003 RMK AO1 SLP195 T10321077 57007
                 P0000 =
2018-10-19 03:16 METAR K40B 190716Z AUTO 00000KT M04/M07 A3004 RMK AO1 SLP196 T10411073 57005 =
2018-10-19 02:16 METAR K40B 190616Z AUTO 00000KT M04/M08 A3005 RMK AO1 SLP198 T10431083 11017
                 21047 57005 =
2018-10-19 01:16 METAR K40B 190516Z AUTO 00000KT M04/M08 A3005 RMK AO1 SLP200 T10441080 400201044
                 57002 =
2018-10-19 00:16 METAR K40B 190416Z AUTO 00000KT M04/M08 A3005 RMK AO1 SLP199 T10421081 57002 =
2018-10-18 23:16 METAR K40B 190316Z AUTO 00000KT M04/M09 A3006 RMK AO1 SLP202 T10361093 51003 =
2018-10-18 22:16 METAR K40B 190216Z AUTO 00000KT M04/M09 A3006 RMK AO1 SLP200 T10371091 51005 =
2018-10-18 21:16 METAR K40B 190116Z AUTO 00000KT M03/M09 A3006 RMK AO1 SLP201 T10271093 51014 =
2018-10-18 20:35 METAR K40B 190035Z AUTO VRB03G12KT M02/M09 A3005 RMK AO1 SLP198 T10181091 10018
                 21021 51020 =
2018-10-18 19:16 METAR K40B 182316Z AUTO VRB02KT M02/M10 A3005 RMK AO1 SLP195 T10171098 52025 =
2018-10-18 18:16 METAR K40B 182216Z AUTO 00000KT M02/M08 A3002 RMK AO1 SLP186 T10181081 52023 =
2018-10-18 17:16 METAR K40B 182116Z AUTO VRB04G15KT M01/M07 A2999 RMK AO1 SLP177 T10081075 52019
                 =
2018-10-18 16:16 METAR K40B 182016Z AUTO VRB06G15KT 00/M05 A2997 RMK AO1 PK WND 27026/1941 SLP171
                 T10031053 52014 =
2018-10-18 15:16 METAR K40B 181916Z AUTO 24007G13KT 160V060 01/M07 A2995 RMK AO1 SLP163 T00071069
                 52011 =
2018-10-18 14:16 METAR K40B 181816Z AUTO VRB06G20KT 02/M06 A2993 RMK AO1 SLP158 T00161063 10020
                 21023 51011 =
2018-10-18 13:16 METAR K40B 181716Z AUTO VRB06G20KT 02/M08 A2993 RMK AO1 SLP158 T00181080 51015 =
2018-10-18 08:16 METAR K40B 181216Z AUTO VRB05G14KT M02/M04 A2986 RMK AO1 SLP132 T10191042 11007
                 21026 53025 60006 70019 =
2018-10-18 07:16 METAR K40B 181116Z AUTO 24007G17KT 180V310 M02/M04 A2982 RMK AO1 SLP118
                 T10231036 51021 P0000 =

Support USWX by starting your Amazon purchase here.